sensor_id;sensor_type;location;lat;lon;timestamp;P1;durP1;ratioP1;P2;durP2;ratioP2
70543;SDS011;58097;48.364;-1.224;2024-01-11T00:01:13;0.50;;;0.50;;
70543;SDS011;58097;48.364;-1.224;2024-01-11T00:03:39;0.60;;;0.60;;
70543;SDS011;58097;48.364;-1.224;2024-01-11T00:06:04;0.50;;;0.50;;
70543;SDS011;58097;48.364;-1.224;2024-01-11T00:08:30;0.57;;;0.57;;
70543;SDS011;58097;48.364;-1.224;2024-01-11T00:10:55;0.60;;;0.60;;
70543;SDS011;58097;48.364;-1.224;2024-01-11T00:13:20;0.60;;;0.60;;
70543;SDS011;58097;48.364;-1.224;2024-01-11T00:15:46;0.60;;;0.60;;
70543;SDS011;58097;48.364;-1.224;2024-01-11T00:18:11;0.60;;;0.60;;
70543;SDS011;58097;48.364;-1.224;2024-01-11T00:20:37;0.60;;;0.60;;
70543;SDS011;58097;48.364;-1.224;2024-01-11T00:23:02;0.60;;;0.60;;
70543;SDS011;58097;48.364;-1.224;2024-01-11T00:25:28;0.60;;;0.60;;
70543;SDS011;58097;48.364;-1.224;2024-01-11T00:27:53;0.60;;;0.60;;
70543;SDS011;58097;48.364;-1.224;2024-01-11T00:30:18;0.60;;;0.60;;
70543;SDS011;58097;48.364;-1.224;2024-01-11T00:32:44;0.60;;;0.60;;
70543;SDS011;58097;48.364;-1.224;2024-01-11T00:35:09;0.60;;;0.60;;
70543;SDS011;58097;48.364;-1.224;2024-01-11T00:37:34;0.70;;;0.70;;
70543;SDS011;58097;48.364;-1.224;2024-01-11T00:39:59;0.60;;;0.60;;
70543;SDS011;58097;48.364;-1.224;2024-01-11T00:42:25;0.55;;;0.55;;
70543;SDS011;58097;48.364;-1.224;2024-01-11T00:44:50;0.60;;;0.60;;
70543;SDS011;58097;48.364;-1.224;2024-01-11T00:47:15;0.60;;;0.60;;
70543;SDS011;58097;48.364;-1.224;2024-01-11T00:49:41;0.60;;;0.60;;
70543;SDS011;58097;48.364;-1.224;2024-01-11T00:52:07;0.60;;;0.60;;
70543;SDS011;58097;48.364;-1.224;2024-01-11T00:54:34;0.60;;;0.60;;
70543;SDS011;58097;48.364;-1.224;2024-01-11T00:57:00;0.60;;;0.60;;
70543;SDS011;58097;48.364;-1.224;2024-01-11T00:59:25;0.55;;;0.55;;
70543;SDS011;58097;48.364;-1.224;2024-01-11T01:01:51;0.60;;;0.60;;
70543;SDS011;58097;48.364;-1.224;2024-01-11T01:04:16;0.60;;;0.60;;
70543;SDS011;58097;48.364;-1.224;2024-01-11T01:06:41;0.60;;;0.60;;
70543;SDS011;58097;48.364;-1.224;2024-01-11T01:09:07;0.60;;;0.60;;
70543;SDS011;58097;48.364;-1.224;2024-01-11T01:11:33;0.60;;;0.60;;
70543;SDS011;58097;48.364;-1.224;2024-01-11T01:13:58;0.60;;;0.60;;
70543;SDS011;58097;48.364;-1.224;2024-01-11T01:16:23;0.65;;;0.65;;
70543;SDS011;58097;48.364;-1.224;2024-01-11T01:18:49;0.60;;;0.60;;
70543;SDS011;58097;48.364;-1.224;2024-01-11T01:21:14;0.50;;;0.50;;
70543;SDS011;58097;48.364;-1.224;2024-01-11T01:23:40;0.60;;;0.60;;
70543;SDS011;58097;48.364;-1.224;2024-01-11T01:26:06;0.60;;;0.60;;
70543;SDS011;58097;48.364;-1.224;2024-01-11T01:28:31;0.70;;;0.70;;
70543;SDS011;58097;48.364;-1.224;2024-01-11T01:30:57;0.68;;;0.68;;
70543;SDS011;58097;48.364;-1.224;2024-01-11T01:33:22;0.60;;;0.60;;
70543;SDS011;58097;48.364;-1.224;2024-01-11T01:35:48;0.73;;;0.73;;
70543;SDS011;58097;48.364;-1.224;2024-01-11T01:38:13;0.70;;;0.70;;
70543;SDS011;58097;48.364;-1.224;2024-01-11T01:40:38;0.65;;;0.65;;
70543;SDS011;58097;48.364;-1.224;2024-01-11T01:43:06;0.70;;;0.70;;
70543;SDS011;58097;48.364;-1.224;2024-01-11T01:45:34;0.60;;;0.60;;
70543;SDS011;58097;48.364;-1.224;2024-01-11T01:47:59;0.60;;;0.60;;
70543;SDS011;58097;48.364;-1.224;2024-01-11T01:50:24;0.65;;;0.65;;
70543;SDS011;58097;48.364;-1.224;2024-01-11T01:52:51;0.50;;;0.50;;
70543;SDS011;58097;48.364;-1.224;2024-01-11T01:55:16;0.70;;;0.70;;
70543;SDS011;58097;48.364;-1.224;2024-01-11T01:57:44;0.60;;;0.60;;
70543;SDS011;58097;48.364;-1.224;2024-01-11T02:00:11;0.60;;;0.60;;
70543;SDS011;58097;48.364;-1.224;2024-01-11T02:02:39;0.63;;;0.63;;
70543;SDS011;58097;48.364;-1.224;2024-01-11T02:05:07;0.60;;;0.60;;
70543;SDS011;58097;48.364;-1.224;2024-01-11T02:07:33;0.60;;;0.60;;
70543;SDS011;58097;48.364;-1.224;2024-01-11T02:09:59;0.60;;;0.60;;
70543;SDS011;58097;48.364;-1.224;2024-01-11T02:12:25;0.70;;;0.70;;
70543;SDS011;58097;48.364;-1.224;2024-01-11T02:14:52;0.60;;;0.60;;
70543;SDS011;58097;48.364;-1.224;2024-01-11T02:17:18;0.60;;;0.60;;
70543;SDS011;58097;48.364;-1.224;2024-01-11T02:19:43;0.60;;;0.60;;
70543;SDS011;58097;48.364;-1.224;2024-01-11T02:22:12;0.65;;;0.65;;
70543;SDS011;58097;48.364;-1.224;2024-01-11T02:24:44;0.60;;;0.60;;
70543;SDS011;58097;48.364;-1.224;2024-01-11T02:27:09;0.60;;;0.60;;
70543;SDS011;58097;48.364;-1.224;2024-01-11T02:29:35;0.60;;;0.60;;
70543;SDS011;58097;48.364;-1.224;2024-01-11T02:32:01;0.60;;;0.60;;
70543;SDS011;58097;48.364;-1.224;2024-01-11T02:34:28;0.60;;;0.60;;
70543;SDS011;58097;48.364;-1.224;2024-01-11T02:36:54;0.60;;;0.60;;
70543;SDS011;58097;48.364;-1.224;2024-01-11T02:39:20;0.60;;;0.60;;
70543;SDS011;58097;48.364;-1.224;2024-01-11T02:41:47;0.60;;;0.60;;
70543;SDS011;58097;48.364;-1.224;2024-01-11T02:44:15;0.60;;;0.60;;
70543;SDS011;58097;48.364;-1.224;2024-01-11T02:46:40;0.65;;;0.65;;
70543;SDS011;58097;48.364;-1.224;2024-01-11T02:49:05;0.60;;;0.60;;
70543;SDS011;58097;48.364;-1.224;2024-01-11T02:51:30;0.60;;;0.60;;
70543;SDS011;58097;48.364;-1.224;2024-01-11T02:53:56;0.60;;;0.60;;
70543;SDS011;58097;48.364;-1.224;2024-01-11T02:56:21;0.60;;;0.60;;
70543;SDS011;58097;48.364;-1.224;2024-01-11T02:58:47;0.60;;;0.60;;
70543;SDS011;58097;48.364;-1.224;2024-01-11T03:01:12;0.60;;;0.60;;
70543;SDS011;58097;48.364;-1.224;2024-01-11T03:03:37;0.68;;;0.68;;
70543;SDS011;58097;48.364;-1.224;2024-01-11T03:06:03;0.70;;;0.70;;
70543;SDS011;58097;48.364;-1.224;2024-01-11T03:08:29;0.60;;;0.60;;
70543;SDS011;58097;48.364;-1.224;2024-01-11T03:10:54;0.63;;;0.63;;
70543;SDS011;58097;48.364;-1.224;2024-01-11T03:13:20;0.60;;;0.60;;
70543;SDS011;58097;48.364;-1.224;2024-01-11T03:15:45;0.70;;;0.70;;
70543;SDS011;58097;48.364;-1.224;2024-01-11T03:18:11;0.68;;;0.68;;
70543;SDS011;58097;48.364;-1.224;2024-01-11T03:20:36;0.60;;;0.60;;
70543;SDS011;58097;48.364;-1.224;2024-01-11T03:23:01;0.60;;;0.60;;
70543;SDS011;58097;48.364;-1.224;2024-01-11T03:25:27;0.60;;;0.60;;
70543;SDS011;58097;48.364;-1.224;2024-01-11T03:27:54;0.60;;;0.60;;
70543;SDS011;58097;48.364;-1.224;2024-01-11T03:30:19;0.60;;;0.60;;
70543;SDS011;58097;48.364;-1.224;2024-01-11T03:32:45;0.60;;;0.60;;
70543;SDS011;58097;48.364;-1.224;2024-01-11T03:35:10;0.70;;;0.70;;
70543;SDS011;58097;48.364;-1.224;2024-01-11T03:37:35;0.60;;;0.60;;
70543;SDS011;58097;48.364;-1.224;2024-01-11T03:40:02;0.52;;;0.52;;
70543;SDS011;58097;48.364;-1.224;2024-01-11T03:42:28;0.60;;;0.60;;
70543;SDS011;58097;48.364;-1.224;2024-01-11T03:44:54;0.60;;;0.60;;
70543;SDS011;58097;48.364;-1.224;2024-01-11T03:47:19;0.60;;;0.60;;
70543;SDS011;58097;48.364;-1.224;2024-01-11T03:49:44;0.60;;;0.60;;
70543;SDS011;58097;48.364;-1.224;2024-01-11T03:52:10;0.60;;;0.60;;
70543;SDS011;58097;48.364;-1.224;2024-01-11T03:54:35;0.65;;;0.65;;
70543;SDS011;58097;48.364;-1.224;2024-01-11T03:57:01;0.60;;;0.60;;
70543;SDS011;58097;48.364;-1.224;2024-01-11T03:59:26;0.60;;;0.60;;
70543;SDS011;58097;48.364;-1.224;2024-01-11T04:01:51;0.60;;;0.60;;
70543;SDS011;58097;48.364;-1.224;2024-01-11T04:04:17;0.63;;;0.63;;
70543;SDS011;58097;48.364;-1.224;2024-01-11T04:06:43;0.60;;;0.60;;
70543;SDS011;58097;48.364;-1.224;2024-01-11T04:09:09;0.60;;;0.60;;
70543;SDS011;58097;48.364;-1.224;2024-01-11T04:11:35;0.60;;;0.60;;
70543;SDS011;58097;48.364;-1.224;2024-01-11T04:14:00;0.60;;;0.60;;
70543;SDS011;58097;48.364;-1.224;2024-01-11T04:16:25;0.60;;;0.60;;
70543;SDS011;58097;48.364;-1.224;2024-01-11T04:18:51;0.60;;;0.60;;
70543;SDS011;58097;48.364;-1.224;2024-01-11T04:21:26;0.60;;;0.60;;
70543;SDS011;58097;48.364;-1.224;2024-01-11T04:23:56;0.60;;;0.60;;
70543;SDS011;58097;48.364;-1.224;2024-01-11T04:26:21;0.60;;;0.60;;
70543;SDS011;58097;48.364;-1.224;2024-01-11T04:28:47;0.60;;;0.60;;
70543;SDS011;58097;48.364;-1.224;2024-01-11T04:31:14;0.60;;;0.60;;
70543;SDS011;58097;48.364;-1.224;2024-01-11T04:33:41;0.60;;;0.60;;
70543;SDS011;58097;48.364;-1.224;2024-01-11T04:36:07;0.70;;;0.70;;
70543;SDS011;58097;48.364;-1.224;2024-01-11T04:38:33;0.50;;;0.50;;
70543;SDS011;58097;48.364;-1.224;2024-01-11T04:40:58;0.60;;;0.60;;
70543;SDS011;58097;48.364;-1.224;2024-01-11T04:43:24;0.60;;;0.60;;
70543;SDS011;58097;48.364;-1.224;2024-01-11T04:45:49;0.60;;;0.60;;
70543;SDS011;58097;48.364;-1.224;2024-01-11T04:48:14;0.60;;;0.60;;
70543;SDS011;58097;48.364;-1.224;2024-01-11T04:50:40;0.70;;;0.70;;
70543;SDS011;58097;48.364;-1.224;2024-01-11T04:53:05;0.60;;;0.60;;
70543;SDS011;58097;48.364;-1.224;2024-01-11T04:55:30;0.60;;;0.60;;
70543;SDS011;58097;48.364;-1.224;2024-01-11T04:57:56;0.60;;;0.60;;
70543;SDS011;58097;48.364;-1.224;2024-01-11T05:00:21;0.60;;;0.60;;
70543;SDS011;58097;48.364;-1.224;2024-01-11T05:02:46;0.70;;;0.70;;
70543;SDS011;58097;48.364;-1.224;2024-01-11T05:05:12;0.60;;;0.60;;
70543;SDS011;58097;48.364;-1.224;2024-01-11T05:07:37;0.60;;;0.60;;
70543;SDS011;58097;48.364;-1.224;2024-01-11T05:10:03;0.55;;;0.55;;
70543;SDS011;58097;48.364;-1.224;2024-01-11T05:12:29;0.60;;;0.60;;
70543;SDS011;58097;48.364;-1.224;2024-01-11T05:14:54;0.60;;;0.60;;
70543;SDS011;58097;48.364;-1.224;2024-01-11T05:17:19;0.60;;;0.60;;
70543;SDS011;58097;48.364;-1.224;2024-01-11T05:19:45;0.60;;;0.60;;
70543;SDS011;58097;48.364;-1.224;2024-01-11T05:22:10;0.60;;;0.60;;
70543;SDS011;58097;48.364;-1.224;2024-01-11T05:24:35;0.60;;;0.60;;
70543;SDS011;58097;48.364;-1.224;2024-01-11T05:27:01;0.60;;;0.60;;
70543;SDS011;58097;48.364;-1.224;2024-01-11T05:29:26;0.60;;;0.60;;
70543;SDS011;58097;48.364;-1.224;2024-01-11T05:31:51;0.70;;;0.70;;
70543;SDS011;58097;48.364;-1.224;2024-01-11T05:34:17;0.60;;;0.60;;
70543;SDS011;58097;48.364;-1.224;2024-01-11T05:36:42;0.60;;;0.60;;
70543;SDS011;58097;48.364;-1.224;2024-01-11T05:39:07;0.60;;;0.60;;
70543;SDS011;58097;48.364;-1.224;2024-01-11T05:41:33;0.60;;;0.60;;
70543;SDS011;58097;48.364;-1.224;2024-01-11T05:43:58;0.60;;;0.60;;
70543;SDS011;58097;48.364;-1.224;2024-01-11T05:46:23;0.60;;;0.60;;
70543;SDS011;58097;48.364;-1.224;2024-01-11T05:48:48;0.60;;;0.60;;
70543;SDS011;58097;48.364;-1.224;2024-01-11T05:51:14;0.60;;;0.60;;
70543;SDS011;58097;48.364;-1.224;2024-01-11T05:53:40;0.60;;;0.60;;
70543;SDS011;58097;48.364;-1.224;2024-01-11T05:56:08;0.60;;;0.60;;
70543;SDS011;58097;48.364;-1.224;2024-01-11T05:58:35;0.60;;;0.60;;
70543;SDS011;58097;48.364;-1.224;2024-01-11T06:01:02;0.60;;;0.60;;
70543;SDS011;58097;48.364;-1.224;2024-01-11T06:03:27;0.60;;;0.60;;
70543;SDS011;58097;48.364;-1.224;2024-01-11T06:05:53;0.60;;;0.60;;
70543;SDS011;58097;48.364;-1.224;2024-01-11T06:08:18;0.60;;;0.60;;
70543;SDS011;58097;48.364;-1.224;2024-01-11T06:10:43;0.70;;;0.70;;
70543;SDS011;58097;48.364;-1.224;2024-01-11T06:13:09;0.60;;;0.60;;
70543;SDS011;58097;48.364;-1.224;2024-01-11T06:15:34;0.60;;;0.60;;
70543;SDS011;58097;48.364;-1.224;2024-01-11T06:18:00;0.60;;;0.60;;
70543;SDS011;58097;48.364;-1.224;2024-01-11T06:20:25;0.60;;;0.60;;
70543;SDS011;58097;48.364;-1.224;2024-01-11T06:22:51;0.60;;;0.60;;
70543;SDS011;58097;48.364;-1.224;2024-01-11T06:25:16;0.70;;;0.70;;
70543;SDS011;58097;48.364;-1.224;2024-01-11T06:27:43;0.60;;;0.60;;
70543;SDS011;58097;48.364;-1.224;2024-01-11T06:30:09;0.60;;;0.60;;
70543;SDS011;58097;48.364;-1.224;2024-01-11T06:32:34;0.50;;;0.50;;
70543;SDS011;58097;48.364;-1.224;2024-01-11T06:35:00;0.60;;;0.60;;
70543;SDS011;58097;48.364;-1.224;2024-01-11T06:37:27;0.60;;;0.60;;
70543;SDS011;58097;48.364;-1.224;2024-01-11T06:39:52;0.60;;;0.60;;
70543;SDS011;58097;48.364;-1.224;2024-01-11T06:42:17;0.60;;;0.60;;
70543;SDS011;58097;48.364;-1.224;2024-01-11T06:44:43;0.60;;;0.60;;
70543;SDS011;58097;48.364;-1.224;2024-01-11T06:47:08;0.60;;;0.60;;
70543;SDS011;58097;48.364;-1.224;2024-01-11T06:49:33;0.60;;;0.60;;
70543;SDS011;58097;48.364;-1.224;2024-01-11T06:51:59;0.60;;;0.60;;
70543;SDS011;58097;48.364;-1.224;2024-01-11T06:54:24;0.60;;;0.60;;
70543;SDS011;58097;48.364;-1.224;2024-01-11T06:56:50;0.60;;;0.60;;
70543;SDS011;58097;48.364;-1.224;2024-01-11T06:59:15;0.60;;;0.60;;
70543;SDS011;58097;48.364;-1.224;2024-01-11T07:01:41;0.50;;;0.50;;
70543;SDS011;58097;48.364;-1.224;2024-01-11T07:04:06;0.60;;;0.60;;
70543;SDS011;58097;48.364;-1.224;2024-01-11T07:06:31;0.50;;;0.50;;
70543;SDS011;58097;48.364;-1.224;2024-01-11T07:08:57;0.50;;;0.50;;
70543;SDS011;58097;48.364;-1.224;2024-01-11T07:11:23;0.60;;;0.60;;
70543;SDS011;58097;48.364;-1.224;2024-01-11T07:13:48;0.60;;;0.60;;
70543;SDS011;58097;48.364;-1.224;2024-01-11T07:16:13;0.55;;;0.55;;
70543;SDS011;58097;48.364;-1.224;2024-01-11T07:18:39;0.60;;;0.60;;
70543;SDS011;58097;48.364;-1.224;2024-01-11T07:21:04;0.60;;;0.60;;
70543;SDS011;58097;48.364;-1.224;2024-01-11T07:23:29;0.60;;;0.60;;
70543;SDS011;58097;48.364;-1.224;2024-01-11T07:25:55;0.60;;;0.60;;
70543;SDS011;58097;48.364;-1.224;2024-01-11T07:28:20;0.60;;;0.60;;
70543;SDS011;58097;48.364;-1.224;2024-01-11T07:30:50;0.60;;;0.60;;
70543;SDS011;58097;48.364;-1.224;2024-01-11T07:33:19;0.60;;;0.60;;
70543;SDS011;58097;48.364;-1.224;2024-01-11T07:35:46;0.50;;;0.50;;
70543;SDS011;58097;48.364;-1.224;2024-01-11T07:38:11;0.50;;;0.50;;
70543;SDS011;58097;48.364;-1.224;2024-01-11T07:40:37;0.50;;;0.50;;
70543;SDS011;58097;48.364;-1.224;2024-01-11T07:43:02;0.60;;;0.60;;
70543;SDS011;58097;48.364;-1.224;2024-01-11T07:45:29;0.55;;;0.55;;
70543;SDS011;58097;48.364;-1.224;2024-01-11T07:47:55;0.50;;;0.50;;
70543;SDS011;58097;48.364;-1.224;2024-01-11T07:50:20;0.60;;;0.60;;
70543;SDS011;58097;48.364;-1.224;2024-01-11T07:52:45;0.50;;;0.50;;
70543;SDS011;58097;48.364;-1.224;2024-01-11T07:55:11;0.60;;;0.60;;
70543;SDS011;58097;48.364;-1.224;2024-01-11T07:57:38;0.50;;;0.50;;
70543;SDS011;58097;48.364;-1.224;2024-01-11T08:00:06;0.60;;;0.60;;
70543;SDS011;58097;48.364;-1.224;2024-01-11T08:02:33;0.60;;;0.60;;
70543;SDS011;58097;48.364;-1.224;2024-01-11T08:04:58;0.50;;;0.50;;
70543;SDS011;58097;48.364;-1.224;2024-01-11T08:07:27;0.65;;;0.65;;
70543;SDS011;58097;48.364;-1.224;2024-01-11T08:09:53;0.55;;;0.55;;
70543;SDS011;58097;48.364;-1.224;2024-01-11T08:12:19;0.50;;;0.50;;
70543;SDS011;58097;48.364;-1.224;2024-01-11T08:14:44;0.50;;;0.50;;
70543;SDS011;58097;48.364;-1.224;2024-01-11T08:17:11;0.50;;;0.50;;
70543;SDS011;58097;48.364;-1.224;2024-01-11T08:19:38;0.50;;;0.50;;
70543;SDS011;58097;48.364;-1.224;2024-01-11T08:22:04;0.60;;;0.60;;
70543;SDS011;58097;48.364;-1.224;2024-01-11T08:24:30;0.60;;;0.60;;
70543;SDS011;58097;48.364;-1.224;2024-01-11T08:26:56;0.60;;;0.60;;
70543;SDS011;58097;48.364;-1.224;2024-01-11T08:29:22;0.60;;;0.60;;
70543;SDS011;58097;48.364;-1.224;2024-01-11T08:31:48;0.52;;;0.52;;
70543;SDS011;58097;48.364;-1.224;2024-01-11T08:34:13;0.52;;;0.52;;
70543;SDS011;58097;48.364;-1.224;2024-01-11T08:36:39;0.50;;;0.50;;
70543;SDS011;58097;48.364;-1.224;2024-01-11T08:39:07;0.60;;;0.60;;
70543;SDS011;58097;48.364;-1.224;2024-01-11T08:41:36;0.50;;;0.50;;
70543;SDS011;58097;48.364;-1.224;2024-01-11T08:44:02;0.50;;;0.50;;
70543;SDS011;58097;48.364;-1.224;2024-01-11T08:46:30;0.55;;;0.55;;
70543;SDS011;58097;48.364;-1.224;2024-01-11T08:48:56;0.57;;;0.57;;
70543;SDS011;58097;48.364;-1.224;2024-01-11T08:51:22;0.60;;;0.60;;
70543;SDS011;58097;48.364;-1.224;2024-01-11T08:53:47;0.50;;;0.50;;
70543;SDS011;58097;48.364;-1.224;2024-01-11T08:56:13;0.50;;;0.50;;
70543;SDS011;58097;48.364;-1.224;2024-01-11T08:58:42;0.60;;;0.60;;
70543;SDS011;58097;48.364;-1.224;2024-01-11T09:01:07;0.55;;;0.55;;
70543;SDS011;58097;48.364;-1.224;2024-01-11T09:03:33;0.52;;;0.52;;
70543;SDS011;58097;48.364;-1.224;2024-01-11T09:06:00;0.60;;;0.60;;
70543;SDS011;58097;48.364;-1.224;2024-01-11T09:08:26;0.50;;;0.50;;
70543;SDS011;58097;48.364;-1.224;2024-01-11T09:10:51;0.70;;;0.70;;
70543;SDS011;58097;48.364;-1.224;2024-01-11T09:13:17;0.50;;;0.50;;
70543;SDS011;58097;48.364;-1.224;2024-01-11T09:15:43;0.50;;;0.50;;
70543;SDS011;58097;48.364;-1.224;2024-01-11T09:18:08;0.60;;;0.60;;
70543;SDS011;58097;48.364;-1.224;2024-01-11T09:20:34;0.52;;;0.52;;
70543;SDS011;58097;48.364;-1.224;2024-01-11T09:23:00;0.50;;;0.50;;
70543;SDS011;58097;48.364;-1.224;2024-01-11T09:25:28;0.50;;;0.50;;
70543;SDS011;58097;48.364;-1.224;2024-01-11T09:27:54;0.55;;;0.55;;
70543;SDS011;58097;48.364;-1.224;2024-01-11T09:30:19;0.60;;;0.60;;
70543;SDS011;58097;48.364;-1.224;2024-01-11T09:32:45;0.50;;;0.50;;
70543;SDS011;58097;48.364;-1.224;2024-01-11T09:35:10;0.60;;;0.60;;
70543;SDS011;58097;48.364;-1.224;2024-01-11T09:37:35;0.50;;;0.50;;
70543;SDS011;58097;48.364;-1.224;2024-01-11T09:40:01;0.50;;;0.50;;
70543;SDS011;58097;48.364;-1.224;2024-01-11T09:42:26;0.60;;;0.60;;
70543;SDS011;58097;48.364;-1.224;2024-01-11T09:44:53;0.50;;;0.50;;
70543;SDS011;58097;48.364;-1.224;2024-01-11T09:47:20;0.50;;;0.50;;
70543;SDS011;58097;48.364;-1.224;2024-01-11T09:49:46;0.50;;;0.50;;
70543;SDS011;58097;48.364;-1.224;2024-01-11T09:52:15;0.50;;;0.50;;
70543;SDS011;58097;48.364;-1.224;2024-01-11T09:54:44;0.50;;;0.50;;
70543;SDS011;58097;48.364;-1.224;2024-01-11T09:57:10;0.50;;;0.50;;
70543;SDS011;58097;48.364;-1.224;2024-01-11T09:59:36;0.50;;;0.50;;
70543;SDS011;58097;48.364;-1.224;2024-01-11T10:02:02;0.50;;;0.50;;
70543;SDS011;58097;48.364;-1.224;2024-01-11T10:04:28;0.50;;;0.50;;
70543;SDS011;58097;48.364;-1.224;2024-01-11T10:06:54;0.50;;;0.50;;
70543;SDS011;58097;48.364;-1.224;2024-01-11T10:09:21;0.60;;;0.60;;
70543;SDS011;58097;48.364;-1.224;2024-01-11T10:11:47;0.50;;;0.50;;
70543;SDS011;58097;48.364;-1.224;2024-01-11T10:14:14;0.50;;;0.50;;
70543;SDS011;58097;48.364;-1.224;2024-01-11T10:16:41;0.50;;;0.50;;
70543;SDS011;58097;48.364;-1.224;2024-01-11T10:19:07;0.50;;;0.50;;
70543;SDS011;58097;48.364;-1.224;2024-01-11T10:21:33;0.50;;;0.50;;
70543;SDS011;58097;48.364;-1.224;2024-01-11T10:24:03;0.50;;;0.50;;
70543;SDS011;58097;48.364;-1.224;2024-01-11T10:26:29;0.50;;;0.50;;
70543;SDS011;58097;48.364;-1.224;2024-01-11T10:28:58;0.50;;;0.50;;
70543;SDS011;58097;48.364;-1.224;2024-01-11T10:31:25;0.50;;;0.50;;
70543;SDS011;58097;48.364;-1.224;2024-01-11T10:33:53;0.40;;;0.40;;
70543;SDS011;58097;48.364;-1.224;2024-01-11T10:36:19;0.50;;;0.50;;
70543;SDS011;58097;48.364;-1.224;2024-01-11T10:38:44;0.50;;;0.50;;
70543;SDS011;58097;48.364;-1.224;2024-01-11T10:41:12;0.50;;;0.50;;
70543;SDS011;58097;48.364;-1.224;2024-01-11T10:43:42;0.40;;;0.40;;
70543;SDS011;58097;48.364;-1.224;2024-01-11T10:46:08;0.40;;;0.40;;
70543;SDS011;58097;48.364;-1.224;2024-01-11T10:48:39;0.40;;;0.40;;
70543;SDS011;58097;48.364;-1.224;2024-01-11T10:51:09;0.43;;;0.43;;
70543;SDS011;58097;48.364;-1.224;2024-01-11T10:56:10;0.40;;;0.40;;
70543;SDS011;58097;48.364;-1.224;2024-01-11T10:58:39;0.40;;;0.40;;
70543;SDS011;58097;48.364;-1.224;2024-01-11T11:01:06;0.40;;;0.40;;
70543;SDS011;58097;48.364;-1.224;2024-01-11T11:03:33;0.50;;;0.50;;
70543;SDS011;58097;48.364;-1.224;2024-01-11T11:06:00;0.40;;;0.40;;
70543;SDS011;58097;48.364;-1.224;2024-01-11T11:08:26;0.40;;;0.40;;
70543;SDS011;58097;48.364;-1.224;2024-01-11T11:10:55;0.40;;;0.40;;
70543;SDS011;58097;48.364;-1.224;2024-01-11T11:13:24;0.50;;;0.50;;
70543;SDS011;58097;48.364;-1.224;2024-01-11T11:15:51;0.50;;;0.50;;
70543;SDS011;58097;48.364;-1.224;2024-01-11T11:18:18;0.40;;;0.40;;
70543;SDS011;58097;48.364;-1.224;2024-01-11T11:20:44;0.30;;;0.30;;
70543;SDS011;58097;48.364;-1.224;2024-01-11T11:23:11;0.40;;;0.40;;
70543;SDS011;58097;48.364;-1.224;2024-01-11T11:25:42;0.40;;;0.40;;
70543;SDS011;58097;48.364;-1.224;2024-01-11T11:28:14;0.40;;;0.40;;
70543;SDS011;58097;48.364;-1.224;2024-01-11T11:30:41;0.40;;;0.40;;
70543;SDS011;58097;48.364;-1.224;2024-01-11T11:33:11;0.43;;;0.43;;
70543;SDS011;58097;48.364;-1.224;2024-01-11T11:35:41;0.40;;;0.40;;
70543;SDS011;58097;48.364;-1.224;2024-01-11T11:38:07;0.40;;;0.40;;
70543;SDS011;58097;48.364;-1.224;2024-01-11T11:40:33;0.50;;;0.50;;
70543;SDS011;58097;48.364;-1.224;2024-01-11T11:43:04;0.40;;;0.40;;
70543;SDS011;58097;48.364;-1.224;2024-01-11T11:45:30;0.40;;;0.40;;
70543;SDS011;58097;48.364;-1.224;2024-01-11T11:47:56;0.35;;;0.35;;
70543;SDS011;58097;48.364;-1.224;2024-01-11T11:50:22;0.40;;;0.40;;
70543;SDS011;58097;48.364;-1.224;2024-01-11T11:52:53;0.50;;;0.50;;
70543;SDS011;58097;48.364;-1.224;2024-01-11T11:55:25;0.40;;;0.40;;
70543;SDS011;58097;48.364;-1.224;2024-01-11T11:57:51;0.45;;;0.45;;
70543;SDS011;58097;48.364;-1.224;2024-01-11T12:00:18;0.40;;;0.40;;
70543;SDS011;58097;48.364;-1.224;2024-01-11T12:02:44;0.40;;;0.40;;
70543;SDS011;58097;48.364;-1.224;2024-01-11T12:05:12;0.30;;;0.30;;
70543;SDS011;58097;48.364;-1.224;2024-01-11T12:07:37;0.40;;;0.40;;
70543;SDS011;58097;48.364;-1.224;2024-01-11T12:10:04;0.40;;;0.40;;
70543;SDS011;58097;48.364;-1.224;2024-01-11T12:12:30;0.47;;;0.47;;
70543;SDS011;58097;48.364;-1.224;2024-01-11T12:14:56;0.40;;;0.40;;
70543;SDS011;58097;48.364;-1.224;2024-01-11T12:17:23;0.40;;;0.40;;
70543;SDS011;58097;48.364;-1.224;2024-01-11T12:19:50;0.40;;;0.40;;
70543;SDS011;58097;48.364;-1.224;2024-01-11T12:22:16;0.50;;;0.50;;
70543;SDS011;58097;48.364;-1.224;2024-01-11T12:24:42;0.40;;;0.40;;
70543;SDS011;58097;48.364;-1.224;2024-01-11T12:27:07;0.40;;;0.40;;
70543;SDS011;58097;48.364;-1.224;2024-01-11T12:29:33;0.45;;;0.45;;
70543;SDS011;58097;48.364;-1.224;2024-01-11T12:31:59;0.40;;;0.40;;
70543;SDS011;58097;48.364;-1.224;2024-01-11T12:34:25;0.45;;;0.45;;
70543;SDS011;58097;48.364;-1.224;2024-01-11T12:36:51;0.43;;;0.43;;
70543;SDS011;58097;48.364;-1.224;2024-01-11T12:39:18;0.40;;;0.40;;
70543;SDS011;58097;48.364;-1.224;2024-01-11T12:41:47;0.47;;;0.47;;
70543;SDS011;58097;48.364;-1.224;2024-01-11T12:44:14;0.40;;;0.40;;
70543;SDS011;58097;48.364;-1.224;2024-01-11T12:46:39;0.32;;;0.32;;
70543;SDS011;58097;48.364;-1.224;2024-01-11T12:49:04;0.30;;;0.30;;
70543;SDS011;58097;48.364;-1.224;2024-01-11T12:51:30;0.32;;;0.32;;
70543;SDS011;58097;48.364;-1.224;2024-01-11T12:53:56;0.40;;;0.40;;
70543;SDS011;58097;48.364;-1.224;2024-01-11T12:56:22;0.40;;;0.40;;
70543;SDS011;58097;48.364;-1.224;2024-01-11T12:58:49;0.38;;;0.38;;
70543;SDS011;58097;48.364;-1.224;2024-01-11T13:01:14;0.32;;;0.32;;
70543;SDS011;58097;48.364;-1.224;2024-01-11T13:03:43;0.30;;;0.30;;
70543;SDS011;58097;48.364;-1.224;2024-01-11T13:06:10;0.40;;;0.40;;
70543;SDS011;58097;48.364;-1.224;2024-01-11T13:08:37;0.40;;;0.40;;
70543;SDS011;58097;48.364;-1.224;2024-01-11T13:11:05;0.40;;;0.40;;
70543;SDS011;58097;48.364;-1.224;2024-01-11T13:13:32;0.40;;;0.40;;
70543;SDS011;58097;48.364;-1.224;2024-01-11T13:15:59;0.30;;;0.30;;
70543;SDS011;58097;48.364;-1.224;2024-01-11T13:18:24;0.40;;;0.40;;
70543;SDS011;58097;48.364;-1.224;2024-01-11T13:20:50;0.43;;;0.43;;
70543;SDS011;58097;48.364;-1.224;2024-01-11T13:23:15;0.40;;;0.40;;
70543;SDS011;58097;48.364;-1.224;2024-01-11T13:25:49;0.40;;;0.40;;
70543;SDS011;58097;48.364;-1.224;2024-01-11T13:28:15;0.30;;;0.30;;
70543;SDS011;58097;48.364;-1.224;2024-01-11T13:30:41;0.30;;;0.30;;
70543;SDS011;58097;48.364;-1.224;2024-01-11T13:33:08;0.45;;;0.45;;
70543;SDS011;58097;48.364;-1.224;2024-01-11T13:35:39;0.40;;;0.40;;
70543;SDS011;58097;48.364;-1.224;2024-01-11T13:38:06;0.38;;;0.38;;
70543;SDS011;58097;48.364;-1.224;2024-01-11T13:40:32;0.40;;;0.40;;
70543;SDS011;58097;48.364;-1.224;2024-01-11T13:42:58;0.40;;;0.40;;
70543;SDS011;58097;48.364;-1.224;2024-01-11T13:45:24;0.38;;;0.38;;
70543;SDS011;58097;48.364;-1.224;2024-01-11T13:47:50;0.40;;;0.40;;
70543;SDS011;58097;48.364;-1.224;2024-01-11T13:50:16;0.40;;;0.40;;
70543;SDS011;58097;48.364;-1.224;2024-01-11T13:52:43;0.30;;;0.30;;
70543;SDS011;58097;48.364;-1.224;2024-01-11T13:55:09;0.50;;;0.50;;
70543;SDS011;58097;48.364;-1.224;2024-01-11T13:57:35;0.40;;;0.40;;
70543;SDS011;58097;48.364;-1.224;2024-01-11T14:00:02;0.32;;;0.32;;
70543;SDS011;58097;48.364;-1.224;2024-01-11T14:02:28;0.32;;;0.32;;
70543;SDS011;58097;48.364;-1.224;2024-01-11T14:04:54;0.40;;;0.40;;
70543;SDS011;58097;48.364;-1.224;2024-01-11T14:07:19;0.40;;;0.40;;
70543;SDS011;58097;48.364;-1.224;2024-01-11T14:09:44;0.30;;;0.30;;
70543;SDS011;58097;48.364;-1.224;2024-01-11T14:12:10;0.30;;;0.30;;
70543;SDS011;58097;48.364;-1.224;2024-01-11T14:14:36;0.30;;;0.30;;
70543;SDS011;58097;48.364;-1.224;2024-01-11T14:17:01;0.30;;;0.30;;
70543;SDS011;58097;48.364;-1.224;2024-01-11T14:19:26;0.40;;;0.40;;
70543;SDS011;58097;48.364;-1.224;2024-01-11T14:21:53;0.40;;;0.40;;
70543;SDS011;58097;48.364;-1.224;2024-01-11T14:24:18;0.40;;;0.40;;
70543;SDS011;58097;48.364;-1.224;2024-01-11T14:26:44;0.30;;;0.30;;
70543;SDS011;58097;48.364;-1.224;2024-01-11T14:29:09;0.38;;;0.38;;